sensor_id;sensor_type;location;lat;lon;timestamp;temperature;humidity
53053;DHT22;38934;52.690;6.184;2023-01-16T00:03:40;3.90;99.90
53053;DHT22;38934;52.690;6.184;2023-01-16T00:06:21;3.70;99.90
53053;DHT22;38934;52.690;6.184;2023-01-16T00:09:05;3.90;99.90
53053;DHT22;38934;52.690;6.184;2023-01-16T00:11:31;4.60;99.90
53053;DHT22;38934;52.690;6.184;2023-01-16T00:14:03;4.90;99.90
53053;DHT22;38934;52.690;6.184;2023-01-16T00:16:29;4.00;99.90
53053;DHT22;38934;52.690;6.184;2023-01-16T00:18:57;4.00;99.90
53053;DHT22;38934;52.690;6.184;2023-01-16T00:21:23;4.00;99.90
53053;DHT22;38934;52.690;6.184;2023-01-16T00:23:58;3.90;99.90
53053;DHT22;38934;52.690;6.184;2023-01-16T00:26:27;4.00;99.90
53053;DHT22;38934;52.690;6.184;2023-01-16T00:29:08;4.10;99.90
53053;DHT22;38934;52.690;6.184;2023-01-16T00:31:34;4.10;99.90
53053;DHT22;38934;52.690;6.184;2023-01-16T00:34:06;4.60;99.90
53053;DHT22;38934;52.690;6.184;2023-01-16T00:36:32;4.10;99.90
53053;DHT22;38934;52.690;6.184;2023-01-16T00:39:06;4.10;99.90
53053;DHT22;38934;52.690;6.184;2023-01-16T00:41:38;5.10;99.90
53053;DHT22;38934;52.690;6.184;2023-01-16T00:44:10;5.40;99.90
53053;DHT22;38934;52.690;6.184;2023-01-16T00:46:50;4.20;99.90
53053;DHT22;38934;52.690;6.184;2023-01-16T00:49:35;4.20;99.90
53053;DHT22;38934;52.690;6.184;2023-01-16T00:52:12;4.20;99.90
53053;DHT22;38934;52.690;6.184;2023-01-16T00:54:38;5.00;99.90
53053;DHT22;38934;52.690;6.184;2023-01-16T00:57:04;4.20;99.90
53053;DHT22;38934;52.690;6.184;2023-01-16T00:59:29;4.40;99.90
53053;DHT22;38934;52.690;6.184;2023-01-16T01:01:55;5.30;99.90
53053;DHT22;38934;52.690;6.184;2023-01-16T01:04:20;4.30;99.90
53053;DHT22;38934;52.690;6.184;2023-01-16T01:06:46;5.20;99.90
53053;DHT22;38934;52.690;6.184;2023-01-16T01:09:17;4.20;99.90
53053;DHT22;38934;52.690;6.184;2023-01-16T01:11:43;4.30;99.90
53053;DHT22;38934;52.690;6.184;2023-01-16T01:14:10;4.20;99.90
53053;DHT22;38934;52.690;6.184;2023-01-16T01:16:55;4.30;99.90
53053;DHT22;38934;52.690;6.184;2023-01-16T01:19:41;4.30;99.90
53053;DHT22;38934;52.690;6.184;2023-01-16T01:22:12;4.30;99.90
53053;DHT22;38934;52.690;6.184;2023-01-16T01:24:40;4.30;99.90
53053;DHT22;38934;52.690;6.184;2023-01-16T01:27:26;4.20;99.90
53053;DHT22;38934;52.690;6.184;2023-01-16T01:29:52;4.30;99.90
53053;DHT22;38934;52.690;6.184;2023-01-16T01:32:29;4.20;99.90
53053;DHT22;38934;52.690;6.184;2023-01-16T01:34:57;5.00;99.90
53053;DHT22;38934;52.690;6.184;2023-01-16T01:37:30;4.20;99.90
53053;DHT22;38934;52.690;6.184;2023-01-16T01:39:57;4.20;99.90
53053;DHT22;38934;52.690;6.184;2023-01-16T01:42:27;5.50;99.90
53053;DHT22;38934;52.690;6.184;2023-01-16T01:45:22;4.40;99.90
53053;DHT22;38934;52.690;6.184;2023-01-16T01:51:19;4.30;99.90
53053;DHT22;38934;52.690;6.184;2023-01-16T01:53:56;4.30;99.90
53053;DHT22;38934;52.690;6.184;2023-01-16T01:59:37;4.30;99.90
53053;DHT22;38934;52.690;6.184;2023-01-16T02:02:06;4.30;99.90
53053;DHT22;38934;52.690;6.184;2023-01-16T02:04:36;4.20;99.90
53053;DHT22;38934;52.690;6.184;2023-01-16T02:07:24;4.20;99.90
53053;DHT22;38934;52.690;6.184;2023-01-16T02:13:00;4.10;99.90
53053;DHT22;38934;52.690;6.184;2023-01-16T02:15:38;4.00;99.90
53053;DHT22;38934;52.690;6.184;2023-01-16T02:18:29;4.00;99.90
53053;DHT22;38934;52.690;6.184;2023-01-16T02:21:45;3.90;99.90
53053;DHT22;38934;52.690;6.184;2023-01-16T02:36:30;3.70;99.90
53053;DHT22;38934;52.690;6.184;2023-01-16T02:39:40;3.70;99.90
53053;DHT22;38934;52.690;6.184;2023-01-16T02:48:10;3.30;99.90
53053;DHT22;38934;52.690;6.184;2023-01-16T02:57:19;4.10;99.90
53053;DHT22;38934;52.690;6.184;2023-01-16T02:59:49;4.10;99.90
53053;DHT22;38934;52.690;6.184;2023-01-16T03:02:16;4.50;99.90
53053;DHT22;38934;52.690;6.184;2023-01-16T03:04:57;4.00;99.90
53053;DHT22;38934;52.690;6.184;2023-01-16T03:21:53;4.20;99.90
53053;DHT22;38934;52.690;6.184;2023-01-16T03:24:41;4.20;99.90
53053;DHT22;38934;52.690;6.184;2023-01-16T03:33:31;4.30;99.90
53053;DHT22;38934;52.690;6.184;2023-01-16T03:36:04;4.30;99.90
53053;DHT22;38934;52.690;6.184;2023-01-16T03:38:44;4.40;99.90
53053;DHT22;38934;52.690;6.184;2023-01-16T03:41:15;4.20;99.90
53053;DHT22;38934;52.690;6.184;2023-01-16T03:44:05;4.40;99.90
53053;DHT22;38934;52.690;6.184;2023-01-16T03:46:48;4.40;99.90
53053;DHT22;38934;52.690;6.184;2023-01-16T03:49:27;5.20;99.90
53053;DHT22;38934;52.690;6.184;2023-01-16T03:51:58;4.40;99.90
53053;DHT22;38934;52.690;6.184;2023-01-16T03:54:53;4.40;99.90
53053;DHT22;38934;52.690;6.184;2023-01-16T03:57:36;4.40;99.90
53053;DHT22;38934;52.690;6.184;2023-01-16T04:00:25;4.40;99.90
53053;DHT22;38934;52.690;6.184;2023-01-16T04:03:01;4.40;99.90
53053;DHT22;38934;52.690;6.184;2023-01-16T04:06:06;4.40;99.90
53053;DHT22;38934;52.690;6.184;2023-01-16T04:08:37;4.40;99.90
53053;DHT22;38934;52.690;6.184;2023-01-16T04:11:19;4.40;99.90
53053;DHT22;38934;52.690;6.184;2023-01-16T04:13:46;4.40;99.90
53053;DHT22;38934;52.690;6.184;2023-01-16T04:16:14;5.10;99.90
53053;DHT22;38934;52.690;6.184;2023-01-16T04:18:43;5.70;99.90
53053;DHT22;38934;52.690;6.184;2023-01-16T04:21:18;4.40;99.90
53053;DHT22;38934;52.690;6.184;2023-01-16T04:23:43;4.50;99.90
53053;DHT22;38934;52.690;6.184;2023-01-16T04:26:09;4.50;99.90
53053;DHT22;38934;52.690;6.184;2023-01-16T04:28:37;4.40;99.90
53053;DHT22;38934;52.690;6.184;2023-01-16T04:31:12;4.40;99.90
53053;DHT22;38934;52.690;6.184;2023-01-16T04:33:38;4.80;99.90
53053;DHT22;38934;52.690;6.184;2023-01-16T04:36:14;5.00;99.90
53053;DHT22;38934;52.690;6.184;2023-01-16T04:38:43;5.10;99.90
53053;DHT22;38934;52.690;6.184;2023-01-16T04:41:10;4.30;99.90
53053;DHT22;38934;52.690;6.184;2023-01-16T04:43:38;4.00;99.90
53053;DHT22;38934;52.690;6.184;2023-01-16T04:46:10;5.00;99.90
53053;DHT22;38934;52.690;6.184;2023-01-16T04:48:39;4.70;99.90
53053;DHT22;38934;52.690;6.184;2023-01-16T04:51:04;4.90;99.90
53053;DHT22;38934;52.690;6.184;2023-01-16T04:53:39;3.70;99.90
53053;DHT22;38934;52.690;6.184;2023-01-16T04:56:13;3.70;99.90
53053;DHT22;38934;52.690;6.184;2023-01-16T04:58:45;4.90;99.90
53053;DHT22;38934;52.690;6.184;2023-01-16T05:01:11;3.80;99.90
53053;DHT22;38934;52.690;6.184;2023-01-16T05:03:38;3.50;99.90
53053;DHT22;38934;52.690;6.184;2023-01-16T05:06:14;2.90;99.90
53053;DHT22;38934;52.690;6.184;2023-01-16T05:08:43;3.40;99.90
53053;DHT22;38934;52.690;6.184;2023-01-16T05:11:25;3.30;99.90
53053;DHT22;38934;52.690;6.184;2023-01-16T05:13:50;3.30;99.90
53053;DHT22;38934;52.690;6.184;2023-01-16T05:16:41;3.20;99.90
53053;DHT22;38934;52.690;6.184;2023-01-16T05:19:07;3.40;99.90
53053;DHT22;38934;52.690;6.184;2023-01-16T05:21:36;4.30;99.90
53053;DHT22;38934;52.690;6.184;2023-01-16T05:24:02;3.50;99.90
53053;DHT22;38934;52.690;6.184;2023-01-16T05:26:28;3.40;99.90
53053;DHT22;38934;52.690;6.184;2023-01-16T05:28:55;4.40;99.90
53053;DHT22;38934;52.690;6.184;2023-01-16T05:31:26;3.40;99.90
53053;DHT22;38934;52.690;6.184;2023-01-16T05:33:52;3.40;99.90
53053;DHT22;38934;52.690;6.184;2023-01-16T05:36:20;3.50;99.90
53053;DHT22;38934;52.690;6.184;2023-01-16T05:38:52;4.60;99.90
53053;DHT22;38934;52.690;6.184;2023-01-16T05:41:18;4.40;99.90
53053;DHT22;38934;52.690;6.184;2023-01-16T05:43:50;4.30;99.90
53053;DHT22;38934;52.690;6.184;2023-01-16T05:46:16;3.30;99.90
53053;DHT22;38934;52.690;6.184;2023-01-16T05:51:50;3.30;99.90
53053;DHT22;38934;52.690;6.184;2023-01-16T05:57:23;3.20;99.90
53053;DHT22;38934;52.690;6.184;2023-01-16T06:00:00;4.00;99.90
53053;DHT22;38934;52.690;6.184;2023-01-16T06:02:38;3.20;99.90
53053;DHT22;38934;52.690;6.184;2023-01-16T06:05:08;3.30;99.90
53053;DHT22;38934;52.690;6.184;2023-01-16T06:07:34;3.20;99.90
53053;DHT22;38934;52.690;6.184;2023-01-16T06:10:06;3.20;99.90
53053;DHT22;38934;52.690;6.184;2023-01-16T06:12:31;3.10;99.90
53053;DHT22;38934;52.690;6.184;2023-01-16T06:18:39;3.10;99.90
53053;DHT22;38934;52.690;6.184;2023-01-16T06:21:05;3.10;99.90
53053;DHT22;38934;52.690;6.184;2023-01-16T06:23:31;3.10;99.90
53053;DHT22;38934;52.690;6.184;2023-01-16T06:25:56;3.00;99.90
53053;DHT22;38934;52.690;6.184;2023-01-16T06:28:22;3.00;99.90
53053;DHT22;38934;52.690;6.184;2023-01-16T06:30:51;3.00;99.90
53053;DHT22;38934;52.690;6.184;2023-01-16T06:33:25;3.00;99.90
53053;DHT22;38934;52.690;6.184;2023-01-16T06:35:51;4.10;99.90
53053;DHT22;38934;52.690;6.184;2023-01-16T06:38:17;3.00;99.90
53053;DHT22;38934;52.690;6.184;2023-01-16T06:40:45;3.00;99.90
53053;DHT22;38934;52.690;6.184;2023-01-16T06:43:13;2.90;99.90
53053;DHT22;38934;52.690;6.184;2023-01-16T06:45:40;3.00;99.90
53053;DHT22;38934;52.690;6.184;2023-01-16T06:48:06;3.00;99.90
53053;DHT22;38934;52.690;6.184;2023-01-16T06:50:32;3.00;99.90
53053;DHT22;38934;52.690;6.184;2023-01-16T06:52:57;3.80;99.90
53053;DHT22;38934;52.690;6.184;2023-01-16T06:55:23;3.60;99.90
53053;DHT22;38934;52.690;6.184;2023-01-16T06:57:52;3.00;99.90
53053;DHT22;38934;52.690;6.184;2023-01-16T07:00:27;3.00;99.90
53053;DHT22;38934;52.690;6.184;2023-01-16T07:02:54;3.00;99.90
53053;DHT22;38934;52.690;6.184;2023-01-16T07:05:22;3.00;99.90
53053;DHT22;38934;52.690;6.184;2023-01-16T07:07:48;3.00;99.90
53053;DHT22;38934;52.690;6.184;2023-01-16T07:10:15;3.10;99.90
53053;DHT22;38934;52.690;6.184;2023-01-16T07:12:50;3.10;99.90
53053;DHT22;38934;52.690;6.184;2023-01-16T07:15:24;3.00;99.90
53053;DHT22;38934;52.690;6.184;2023-01-16T07:18:13;3.10;99.90
53053;DHT22;38934;52.690;6.184;2023-01-16T07:21:01;3.10;99.90
53053;DHT22;38934;52.690;6.184;2023-01-16T07:24:01;3.10;99.90
53053;DHT22;38934;52.690;6.184;2023-01-16T07:26:28;3.10;99.90
53053;DHT22;38934;52.690;6.184;2023-01-16T07:28:55;3.10;99.90
53053;DHT22;38934;52.690;6.184;2023-01-16T07:31:31;3.20;99.90
53053;DHT22;38934;52.690;6.184;2023-01-16T07:33:57;3.20;99.90
53053;DHT22;38934;52.690;6.184;2023-01-16T07:36:23;3.20;99.90
53053;DHT22;38934;52.690;6.184;2023-01-16T07:38:48;3.30;99.90
53053;DHT22;38934;52.690;6.184;2023-01-16T07:41:14;3.30;99.90
53053;DHT22;38934;52.690;6.184;2023-01-16T07:43:47;3.30;99.90
53053;DHT22;38934;52.690;6.184;2023-01-16T07:46:13;3.40;99.90
53053;DHT22;38934;52.690;6.184;2023-01-16T07:48:38;3.40;99.90
53053;DHT22;38934;52.690;6.184;2023-01-16T07:51:04;3.40;99.90
53053;DHT22;38934;52.690;6.184;2023-01-16T07:53:30;3.50;99.90
53053;DHT22;38934;52.690;6.184;2023-01-16T07:56:01;3.50;99.90
53053;DHT22;38934;52.690;6.184;2023-01-16T07:58:28;3.50;99.90
53053;DHT22;38934;52.690;6.184;2023-01-16T08:00:55;3.50;99.90
53053;DHT22;38934;52.690;6.184;2023-01-16T08:03:21;3.60;99.90
53053;DHT22;38934;52.690;6.184;2023-01-16T08:05:47;3.60;99.90
53053;DHT22;38934;52.690;6.184;2023-01-16T08:08:16;3.60;99.90
53053;DHT22;38934;52.690;6.184;2023-01-16T08:10:41;4.20;99.90
53053;DHT22;38934;52.690;6.184;2023-01-16T08:13:08;4.80;99.90
53053;DHT22;38934;52.690;6.184;2023-01-16T08:15:33;3.70;99.90
53053;DHT22;38934;52.690;6.184;2023-01-16T08:17:59;3.70;99.90
53053;DHT22;38934;52.690;6.184;2023-01-16T08:20:25;3.70;99.90
53053;DHT22;38934;52.690;6.184;2023-01-16T08:22:51;3.80;99.90
53053;DHT22;38934;52.690;6.184;2023-01-16T08:25:23;4.70;99.90
53053;DHT22;38934;52.690;6.184;2023-01-16T08:27:52;3.80;99.90
53053;DHT22;38934;52.690;6.184;2023-01-16T08:30:17;3.80;99.90
53053;DHT22;38934;52.690;6.184;2023-01-16T08:32:43;3.90;99.90
53053;DHT22;38934;52.690;6.184;2023-01-16T08:35:09;3.90;99.90
53053;DHT22;38934;52.690;6.184;2023-01-16T08:37:35;3.90;99.90
53053;DHT22;38934;52.690;6.184;2023-01-16T08:40:07;3.90;99.90
53053;DHT22;38934;52.690;6.184;2023-01-16T08:42:34;3.80;99.90
53053;DHT22;38934;52.690;6.184;2023-01-16T08:45:18;3.90;99.90
53053;DHT22;38934;52.690;6.184;2023-01-16T08:48:03;3.90;99.90
53053;DHT22;38934;52.690;6.184;2023-01-16T08:50:47;3.90;99.90
53053;DHT22;38934;52.690;6.184;2023-01-16T08:53:32;3.90;99.90
53053;DHT22;38934;52.690;6.184;2023-01-16T08:55:58;3.90;99.90
53053;DHT22;38934;52.690;6.184;2023-01-16T08:58:24;4.30;99.90
53053;DHT22;38934;52.690;6.184;2023-01-16T09:00:50;3.90;99.90
53053;DHT22;38934;52.690;6.184;2023-01-16T09:03:16;3.90;99.90
53053;DHT22;38934;52.690;6.184;2023-01-16T09:05:44;3.80;99.90
53053;DHT22;38934;52.690;6.184;2023-01-16T09:08:10;3.80;99.90
53053;DHT22;38934;52.690;6.184;2023-01-16T09:10:36;3.90;99.90
53053;DHT22;38934;52.690;6.184;2023-01-16T09:13:02;3.90;99.90
53053;DHT22;38934;52.690;6.184;2023-01-16T09:15:47;3.90;99.90
53053;DHT22;38934;52.690;6.184;2023-01-16T09:18:13;4.90;99.90
53053;DHT22;38934;52.690;6.184;2023-01-16T09:20:38;3.80;99.90
53053;DHT22;38934;52.690;6.184;2023-01-16T09:23:04;3.90;99.90
53053;DHT22;38934;52.690;6.184;2023-01-16T09:25:31;3.90;99.90
53053;DHT22;38934;52.690;6.184;2023-01-16T09:27:57;3.90;99.90
53053;DHT22;38934;52.690;6.184;2023-01-16T09:30:23;3.90;99.90
53053;DHT22;38934;52.690;6.184;2023-01-16T09:32:50;3.90;99.90
53053;DHT22;38934;52.690;6.184;2023-01-16T09:35:16;3.90;99.90
53053;DHT22;38934;52.690;6.184;2023-01-16T09:37:45;3.90;99.90
53053;DHT22;38934;52.690;6.184;2023-01-16T09:40:18;3.90;99.90
53053;DHT22;38934;52.690;6.184;2023-01-16T09:45:48;3.90;99.90
53053;DHT22;38934;52.690;6.184;2023-01-16T09:48:23;3.90;99.90
53053;DHT22;38934;52.690;6.184;2023-01-16T09:50:52;3.90;99.90
53053;DHT22;38934;52.690;6.184;2023-01-16T09:53:43;4.50;99.90
53053;DHT22;38934;52.690;6.184;2023-01-16T10:00:19;3.90;99.90
53053;DHT22;38934;52.690;6.184;2023-01-16T10:06:44;3.90;99.90
53053;DHT22;38934;52.690;6.184;2023-01-16T10:12:32;3.80;99.90
53053;DHT22;38934;52.690;6.184;2023-01-16T10:24:16;3.70;99.90
53053;DHT22;38934;52.690;6.184;2023-01-16T10:33:38;3.60;99.90
53053;DHT22;38934;52.690;6.184;2023-01-16T10:36:38;3.60;99.90
53053;DHT22;38934;52.690;6.184;2023-01-16T10:39:37;3.60;99.90
53053;DHT22;38934;52.690;6.184;2023-01-16T10:55:08;3.60;99.90
53053;DHT22;38934;52.690;6.184;2023-01-16T10:58:04;3.70;99.90
53053;DHT22;38934;52.690;6.184;2023-01-16T11:00:33;3.60;99.90
53053;DHT22;38934;52.690;6.184;2023-01-16T11:06:42;3.60;99.90
53053;DHT22;38934;52.690;6.184;2023-01-16T11:09:18;3.70;99.90
53053;DHT22;38934;52.690;6.184;2023-01-16T11:11:50;3.70;99.90
53053;DHT22;38934;52.690;6.184;2023-01-16T11:14:53;3.70;99.90
53053;DHT22;38934;52.690;6.184;2023-01-16T11:17:51;4.40;99.90
53053;DHT22;38934;52.690;6.184;2023-01-16T11:20:36;3.80;99.90
53053;DHT22;38934;52.690;6.184;2023-01-16T11:23:18;3.70;99.90
53053;DHT22;38934;52.690;6.184;2023-01-16T11:25:53;3.70;99.90
53053;DHT22;38934;52.690;6.184;2023-01-16T11:28:27;3.70;99.90
53053;DHT22;38934;52.690;6.184;2023-01-16T11:30:59;3.80;99.90
53053;DHT22;38934;52.690;6.184;2023-01-16T11:33:32;3.90;99.90
53053;DHT22;38934;52.690;6.184;2023-01-16T11:36:06;3.90;99.90
53053;DHT22;38934;52.690;6.184;2023-01-16T11:38:38;3.90;99.90
53053;DHT22;38934;52.690;6.184;2023-01-16T11:41:17;5.40;99.90
53053;DHT22;38934;52.690;6.184;2023-01-16T11:44:21;5.20;99.90
53053;DHT22;38934;52.690;6.184;2023-01-16T11:47:26;4.00;99.90
53053;DHT22;38934;52.690;6.184;2023-01-16T11:49:54;4.00;99.90
53053;DHT22;38934;52.690;6.184;2023-01-16T11:52:23;4.00;99.90
53053;DHT22;38934;52.690;6.184;2023-01-16T11:55:04;4.10;99.90
53053;DHT22;38934;52.690;6.184;2023-01-16T12:19:57;4.30;99.90
53053;DHT22;38934;52.690;6.184;2023-01-16T12:26:26;4.30;99.90
53053;DHT22;38934;52.690;6.184;2023-01-16T12:45:02;4.40;99.90
53053;DHT22;38934;52.690;6.184;2023-01-16T12:54:21;4.40;99.90
53053;DHT22;38934;52.690;6.184;2023-01-16T12:59:32;4.50;99.90
53053;DHT22;38934;52.690;6.184;2023-01-16T13:05:17;4.50;99.90
53053;DHT22;38934;52.690;6.184;2023-01-16T13:15:23;4.60;99.90
53053;DHT22;38934;52.690;6.184;2023-01-16T13:31:45;4.60;99.90
53053;DHT22;38934;52.690;6.184;2023-01-16T13:34:40;4.60;99.90
53053;DHT22;38934;52.690;6.184;2023-01-16T13:40:38;4.70;99.90
53053;DHT22;38934;52.690;6.184;2023-01-16T13:43:22;4.70;99.90
53053;DHT22;38934;52.690;6.184;2023-01-16T13:49:31;4.80;99.90
53053;DHT22;38934;52.690;6.184;2023-01-16T13:52:22;4.80;99.90
53053;DHT22;38934;52.690;6.184;2023-01-16T13:54:54;4.80;99.90
53053;DHT22;38934;52.690;6.184;2023-01-16T14:01:00;4.80;99.90
53053;DHT22;38934;52.690;6.184;2023-01-16T14:03:34;4.80;99.90
53053;DHT22;38934;52.690;6.184;2023-01-16T14:19:48;4.80;99.90
53053;DHT22;38934;52.690;6.184;2023-01-16T14:22:20;4.70;99.90
53053;DHT22;38934;52.690;6.184;2023-01-16T14:24:54;4.70;99.90
53053;DHT22;38934;52.690;6.184;2023-01-16T14:27:31;4.70;99.90
53053;DHT22;38934;52.690;6.184;2023-01-16T14:30:23;4.60;99.90
53053;DHT22;38934;52.690;6.184;2023-01-16T14:32:59;4.70;99.90
53053;DHT22;38934;52.690;6.184;2023-01-16T14:38:48;4.70;99.90
53053;DHT22;38934;52.690;6.184;2023-01-16T14:41:17;4.70;99.90
53053;DHT22;38934;52.690;6.184;2023-01-16T14:44:12;4.70;99.90
53053;DHT22;38934;52.690;6.184;2023-01-16T14:50:42;4.70;99.90
53053;DHT22;38934;52.690;6.184;2023-01-16T14:53:27;4.70;99.90
53053;DHT22;38934;52.690;6.184;2023-01-16T14:56:27;4.90;99.90
53053;DHT22;38934;52.690;6.184;2023-01-16T14:59:10;4.70;99.90
53053;DHT22;38934;52.690;6.184;2023-01-16T15:01:46;4.70;99.90
53053;DHT22;38934;52.690;6.184;2023-01-16T15:07:29;4.70;99.90
53053;DHT22;38934;52.690;6.184;2023-01-16T15:10:03;4.70;99.90
53053;DHT22;38934;52.690;6.184;2023-01-16T15:12:39;4.70;99.90
53053;DHT22;38934;52.690;6.184;2023-01-16T15:15:19;4.70;99.90
53053;DHT22;38934;52.690;6.184;2023-01-16T15:17:45;4.70;99.90
53053;DHT22;38934;52.690;6.184;2023-01-16T15:20:30;4.70;99.90
53053;DHT22;38934;52.690;6.184;2023-01-16T15:23:36;5.40;99.90
53053;DHT22;38934;52.690;6.184;2023-01-16T15:28:32;4.70;99.90
53053;DHT22;38934;52.690;6.184;2023-01-16T15:31:16;4.70;99.90
53053;DHT22;38934;52.690;6.184;2023-01-16T15:33:43;4.70;99.90
53053;DHT22;38934;52.690;6.184;2023-01-16T15:44:50;4.70;99.90
53053;DHT22;38934;52.690;6.184;2023-01-16T15:48:41;4.70;99.90
53053;DHT22;38934;52.690;6.184;2023-01-16T15:50:58;4.70;99.90
53053;DHT22;38934;52.690;6.184;2023-01-16T15:53:31;4.70;99.90
53053;DHT22;38934;52.690;6.184;2023-01-16T15:56:03;4.70;99.90
53053;DHT22;38934;52.690;6.184;2023-01-16T15:58:30;4.70;99.90
53053;DHT22;38934;52.690;6.184;2023-01-16T16:00:59;4.70;99.90
53053;DHT22;38934;52.690;6.184;2023-01-16T16:03:41;4.70;99.90
53053;DHT22;38934;52.690;6.184;2023-01-16T16:06:10;4.70;99.90
53053;DHT22;38934;52.690;6.184;2023-01-16T16:08:40;4.70;99.90
53053;DHT22;38934;52.690;6.184;2023-01-16T16:11:08;4.70;99.90
53053;DHT22;38934;52.690;6.184;2023-01-16T16:13:53;4.70;99.90
53053;DHT22;38934;52.690;6.184;2023-01-16T16:16:22;4.70;99.90
53053;DHT22;38934;52.690;6.184;2023-01-16T16:19:07;4.70;99.90
53053;DHT22;38934;52.690;6.184;2023-01-16T16:21:47;4.60;99.90
53053;DHT22;38934;52.690;6.184;2023-01-16T16:24:34;4.60;99.90
53053;DHT22;38934;52.690;6.184;2023-01-16T16:27:11;5.70;99.90
53053;DHT22;38934;52.690;6.184;2023-01-16T16:29:38;4.60;99.90
53053;DHT22;38934;52.690;6.184;2023-01-16T16:32:05;4.60;99.90
53053;DHT22;38934;52.690;6.184;2023-01-16T16:34:35;4.60;99.90
53053;DHT22;38934;52.690;6.184;2023-01-16T16:37:02;4.60;99.90
53053;DHT22;38934;52.690;6.184;2023-01-16T16:47:40;4.50;99.90
53053;DHT22;38934;52.690;6.184;2023-01-16T16:50:32;4.50;99.90
53053;DHT22;38934;52.690;6.184;2023-01-16T16:53:23;4.50;99.90
53053;DHT22;38934;52.690;6.184;2023-01-16T16:55:52;4.50;99.90
53053;DHT22;38934;52.690;6.184;2023-01-16T16:58:22;4.90;99.90
53053;DHT22;38934;52.690;6.184;2023-01-16T17:00:49;4.50;99.90
53053;DHT22;38934;52.690;6.184;2023-01-16T17:03:23;4.50;99.90
53053;DHT22;38934;52.690;6.184;2023-01-16T17:05:50;4.50;99.90
53053;DHT22;38934;52.690;6.184;2023-01-16T17:08:26;4.50;99.90
53053;DHT22;38934;52.690;6.184;2023-01-16T17:10:56;4.50;99.90
53053;DHT22;38934;52.690;6.184;2023-01-16T17:13:23;4.50;99.90
53053;DHT22;38934;52.690;6.184;2023-01-16T17:15:53;4.50;99.90
53053;DHT22;38934;52.690;6.184;2023-01-16T17:18:19;4.50;99.90
53053;DHT22;38934;52.690;6.184;2023-01-16T17:20:45;4.50;99.90
53053;DHT22;38934;52.690;6.184;2023-01-16T17:23:16;4.50;99.90
53053;DHT22;38934;52.690;6.184;2023-01-16T17:25:42;4.50;99.90
53053;DHT22;38934;52.690;6.184;2023-01-16T17:28:10;4.50;99.90
53053;DHT22;38934;52.690;6.184;2023-01-16T17:30:36;4.50;99.90
53053;DHT22;38934;52.690;6.184;2023-01-16T17:35:40;4.50;99.90
53053;DHT22;38934;52.690;6.184;2023-01-16T17:38:17;4.50;99.90
53053;DHT22;38934;52.690;6.184;2023-01-16T17:40:42;4.50;99.90
53053;DHT22;38934;52.690;6.184;2023-01-16T17:43:16;4.50;99.90
53053;DHT22;38934;52.690;6.184;2023-01-16T17:46:04;4.50;99.90
53053;DHT22;38934;52.690;6.184;2023-01-16T17:48:30;5.40;99.90
53053;DHT22;38934;52.690;6.184;2023-01-16T17:50:57;4.50;99.90
53053;DHT22;38934;52.690;6.184;2023-01-16T17:53:26;4.50;99.90
53053;DHT22;38934;52.690;6.184;2023-01-16T17:55:54;4.50;99.90
53053;DHT22;38934;52.690;6.184;2023-01-16T17:58:24;4.50;99.90
53053;DHT22;38934;52.690;6.184;2023-01-16T18:01:04;4.50;99.90
53053;DHT22;38934;52.690;6.184;2023-01-16T18:03:31;4.50;99.90
53053;DHT22;38934;52.690;6.184;2023-01-16T18:06:03;4.50;99.90
53053;DHT22;38934;52.690;6.184;2023-01-16T18:08:30;4.50;99.90
53053;DHT22;38934;52.690;6.184;2023-01-16T18:10:58;4.50;99.90
53053;DHT22;38934;52.690;6.184;2023-01-16T18:13:24;4.50;99.90
53053;DHT22;38934;52.690;6.184;2023-01-16T18:16:13;4.50;99.90
53053;DHT22;38934;52.690;6.184;2023-01-16T18:19:03;4.50;99.90
53053;DHT22;38934;52.690;6.184;2023-01-16T18:21:33;4.50;99.90
53053;DHT22;38934;52.690;6.184;2023-01-16T18:24:18;4.50;99.90
53053;DHT22;38934;52.690;6.184;2023-01-16T18:26:44;4.50;99.90
53053;DHT22;38934;52.690;6.184;2023-01-16T18:29:10;4.50;99.90
53053;DHT22;38934;52.690;6.184;2023-01-16T18:31:35;4.50;99.90
53053;DHT22;38934;52.690;6.184;2023-01-16T18:34:01;4.60;99.90
53053;DHT22;38934;52.690;6.184;2023-01-16T18:36:27;4.50;99.90
53053;DHT22;38934;52.690;6.184;2023-01-16T18:38:54;4.50;99.90
53053;DHT22;38934;52.690;6.184;2023-01-16T18:42:04;4.50;99.90
53053;DHT22;38934;52.690;6.184;2023-01-16T18:44:48;4.50;99.90
53053;DHT22;38934;52.690;6.184;2023-01-16T18:47:33;4.60;99.90
53053;DHT22;38934;52.690;6.184;2023-01-16T18:50:17;4.60;99.90
53053;DHT22;38934;52.690;6.184;2023-01-16T18:53:02;4.60;99.90
53053;DHT22;38934;52.690;6.184;2023-01-16T18:55:46;4.60;99.90
53053;DHT22;38934;52.690;6.184;2023-01-16T18:58:32;4.60;99.90
53053;DHT22;38934;52.690;6.184;2023-01-16T19:01:16;4.60;99.90
53053;DHT22;38934;52.690;6.184;2023-01-16T19:04:00;4.60;99.90
53053;DHT22;38934;52.690;6.184;2023-01-16T19:06:26;4.60;99.90
53053;DHT22;38934;52.690;6.184;2023-01-16T19:08:51;4.60;99.90
53053;DHT22;38934;52.690;6.184;2023-01-16T19:11:19;4.60;99.90
53053;DHT22;38934;52.690;6.184;2023-01-16T19:13:46;4.60;99.90
53053;DHT22;38934;52.690;6.184;2023-01-16T19:16:13;4.60;99.90
53053;DHT22;38934;52.690;6.184;2023-01-16T19:18:58;5.00;99.90
53053;DHT22;38934;52.690;6.184;2023-01-16T19:21:24;4.60;99.90
53053;DHT22;38934;52.690;6.184;2023-01-16T19:23:50;4.50;99.90
53053;DHT22;38934;52.690;6.184;2023-01-16T19:26:16;4.40;99.90
53053;DHT22;38934;52.690;6.184;2023-01-16T19:28:41;4.20;99.90
53053;DHT22;38934;52.690;6.184;2023-01-16T19:31:08;4.10;99.90
53053;DHT22;38934;52.690;6.184;2023-01-16T19:33:34;4.00;99.90
53053;DHT22;38934;52.690;6.184;2023-01-16T19:36:03;3.90;99.90
53053;DHT22;38934;52.690;6.184;2023-01-16T19:38:28;3.80;99.90
53053;DHT22;38934;52.690;6.184;2023-01-16T19:41:00;3.70;99.90
53053;DHT22;38934;52.690;6.184;2023-01-16T19:43:26;3.90;99.90
53053;DHT22;38934;52.690;6.184;2023-01-16T19:46:10;3.60;99.90
53053;DHT22;38934;52.690;6.184;2023-01-16T19:48:57;3.50;99.90
53053;DHT22;38934;52.690;6.184;2023-01-16T19:51:24;3.50;99.90
53053;DHT22;38934;52.690;6.184;2023-01-16T19:53:53;3.40;99.90
53053;DHT22;38934;52.690;6.184;2023-01-16T19:56:20;3.40;99.90
53053;DHT22;38934;52.690;6.184;2023-01-16T19:58:46;3.30;99.90
53053;DHT22;38934;52.690;6.184;2023-01-16T20:01:12;3.30;99.90
53053;DHT22;38934;52.690;6.184;2023-01-16T20:03:41;3.20;99.90
53053;DHT22;38934;52.690;6.184;2023-01-16T20:06:08;3.20;99.90
53053;DHT22;38934;52.690;6.184;2023-01-16T20:08:34;3.20;99.90
53053;DHT22;38934;52.690;6.184;2023-01-16T20:10:59;3.20;99.90
53053;DHT22;38934;52.690;6.184;2023-01-16T20:13:25;3.20;99.90
53053;DHT22;38934;52.690;6.184;2023-01-16T20:15:50;3.10;99.90
53053;DHT22;38934;52.690;6.184;2023-01-16T20:18:16;3.10;99.90
53053;DHT22;38934;52.690;6.184;2023-01-16T20:20:42;3.10;99.90
53053;DHT22;38934;52.690;6.184;2023-01-16T20:23:10;3.00;99.90
53053;DHT22;38934;52.690;6.184;2023-01-16T20:25:39;3.00;99.90
53053;DHT22;38934;52.690;6.184;2023-01-16T20:28:05;3.00;99.90
53053;DHT22;38934;52.690;6.184;2023-01-16T20:30:31;2.90;99.90